createdAt,value
2018-03-30T10:35:03.100Z,100746.23
2018-03-30T10:37:30.683Z,100743.48
2018-03-30T10:39:57.566Z,100738.75
2018-03-30T10:42:24.653Z,100728.84
2018-03-30T10:44:52.280Z,100727.94
2018-03-30T10:47:19.165Z,100728.61
2018-03-30T10:49:46.878Z,100731.61
2018-03-30T10:52:13.705Z,100724.84
2018-03-30T10:54:40.552Z,100716.84
2018-03-30T10:57:07.906Z,100712.57
2018-03-30T10:59:34.746Z,100709.14
2018-03-30T11:02:01.612Z,100709.64
2018-03-30T11:04:28.607Z,100695.98
2018-03-30T11:06:56.229Z,100696.62
2018-03-30T11:09:23.070Z,100697.85
2018-03-30T11:11:50.072Z,100688.50
2018-03-30T11:14:17.744Z,100695.17
2018-03-30T11:16:44.575Z,100683.00
2018-03-30T11:19:12.225Z,100680.78
2018-03-30T11:21:39.162Z,100675.30
2018-03-30T11:24:05.994Z,100680.62
2018-03-30T11:26:32.923Z,100665.82
2018-03-30T11:28:59.754Z,100664.88
2018-03-30T11:31:26.594Z,100658.58
2018-03-30T11:33:53.573Z,100653.61
2018-03-30T11:36:20.460Z,100654.18
2018-03-30T11:38:48.348Z,100645.97
2018-03-30T11:41:15.293Z,100646.36
2018-03-30T11:43:42.120Z,100649.16
2018-03-30T11:46:09.689Z,100643.99
2018-03-30T11:48:36.573Z,100639.09
2018-03-30T11:51:03.449Z,100629.21
2018-03-30T11:53:30.328Z,100627.53
2018-03-30T11:55:57.451Z,100622.97
2018-03-30T11:58:25.134Z,100613.80
2018-03-30T12:00:51.999Z,100606.23
2018-03-30T12:03:18.987Z,100600.89
2018-03-30T12:05:45.896Z,100608.79
2018-03-30T12:08:12.778Z,100604.53
2018-03-30T12:10:39.763Z,100595.98
2018-03-30T12:13:07.330Z,100582.64
2018-03-30T12:15:34.224Z,100587.38
2018-03-30T12:18:01.197Z,100585.31
2018-03-30T12:20:28.047Z,100580.70
2018-03-30T12:22:55.737Z,100572.52
2018-03-30T12:25:22.727Z,100564.91
2018-03-30T12:27:49.635Z,100568.35
2018-03-30T12:30:16.469Z,100562.89
2018-03-30T12:32:43.359Z,100571.43
2018-03-30T12:35:10.212Z,100563.36
2018-03-30T12:37:37.100Z,100557.70
2018-03-30T12:40:04.134Z,100552.81
2018-03-30T12:42:31.716Z,100551.28
2018-03-30T12:44:58.571Z,100540.84
2018-03-30T12:47:25.588Z,100535.64
2018-03-30T12:49:53.203Z,100529.94
2018-03-30T12:52:20.077Z,100526.56
2018-03-30T12:54:47.140Z,100524.70
2018-03-30T12:57:14.734Z,100514.59
2018-03-30T12:59:41.568Z,100504.54
2018-03-30T13:02:08.540Z,100497.36
2018-03-30T13:04:35.461Z,100497.48
2018-03-30T13:07:02.378Z,100490.08
2018-03-30T13:09:29.256Z,100483.17
2018-03-30T13:11:56.137Z,100472.91
2018-03-30T13:14:22.999Z,100470.16
2018-03-30T13:16:49.898Z,100465.36
2018-03-30T13:19:16.732Z,100454.81
2018-03-30T13:21:43.571Z,100446.30
2018-03-30T13:24:10.639Z,100439.38
2018-03-30T13:26:37.566Z,100435.17
2018-03-30T13:29:05.176Z,100430.66
2018-03-30T13:31:32.146Z,100419.70
2018-03-30T13:33:58.992Z,100421.55
2018-03-30T13:36:25.865Z,100411.72
2018-03-30T13:38:52.739Z,100398.30
2018-03-30T13:41:19.590Z,100386.42
2018-03-30T13:43:46.427Z,100383.45
2018-03-30T13:46:13.354Z,100384.05
2018-03-30T13:48:40.224Z,100385.86
2018-03-30T13:54:16.527Z,100377.41
2018-03-30T13:56:49.689Z,100374.46
2018-03-30T13:59:19.394Z,100373.00
2018-03-30T14:05:00.523Z,100377.02
2018-03-30T14:07:33.586Z,100378.72
2018-03-30T14:10:04.350Z,100386.52
2018-03-30T14:12:34.845Z,100382.73
2018-03-30T14:15:01.845Z,100381.87
2018-03-30T14:17:33.322Z,100381.60
2018-03-30T14:20:02.248Z,100397.36
2018-03-30T14:23:03.721Z,100397.73
2018-03-30T14:28:41.678Z,100407.34
2018-03-30T14:31:12.278Z,100406.97
2018-03-30T14:33:42.153Z,100396.05
2018-03-30T14:36:21.491Z,100405.52
2018-03-30T14:41:52.275Z,100394.95
2018-03-30T14:44:35.168Z,100389.71
2018-03-30T14:47:04.123Z,100375.90
2018-03-30T14:55:56.951Z,100367.78
2018-03-30T15:04:19.577Z,100371.11
2018-03-30T15:09:55.854Z,100368.72
2018-03-30T15:12:30.632Z,100367.05
2018-03-30T15:14:59.223Z,100367.78
2018-03-30T15:17:45.909Z,100375.41
2018-03-30T15:20:18.636Z,100373.38
2018-03-30T15:22:54.491Z,100366.48
2018-03-30T15:28:34.845Z,100362.13
2018-03-30T15:31:07.848Z,100360.67
2018-03-30T15:36:48.957Z,100363.23
2018-03-30T15:39:16.693Z,100362.55
2018-03-30T15:41:46.415Z,100340.61
2018-03-30T15:44:13.623Z,100346.92
2018-03-30T15:46:53.489Z,100347.15
2018-03-30T15:49:20.806Z,100341.09
2018-03-30T15:51:48.509Z,100341.75
2018-03-30T15:54:15.004Z,100332.63
2018-03-30T15:56:43.722Z,100337.41
2018-03-30T15:59:10.692Z,100334.24
2018-03-30T16:01:37.526Z,100331.91
2018-03-30T16:04:04.469Z,100323.63
2018-03-30T16:06:31.301Z,100324.20
2018-03-30T16:08:58.268Z,100313.42
2018-03-30T16:11:33.137Z,100317.06
2018-03-30T16:13:59.986Z,100315.88
2018-03-30T16:16:26.882Z,100321.87
2018-03-30T16:18:56.167Z,100320.88
2018-03-30T16:21:22.703Z,100322.47
2018-03-30T16:23:49.234Z,100325.34
2018-03-30T16:26:15.919Z,100321.37
2018-03-30T16:28:42.406Z,100322.69
2018-03-30T16:31:08.900Z,100322.88
2018-03-30T16:33:35.543Z,100322.45
2018-03-30T16:36:02.039Z,100332.74
2018-03-30T16:38:28.522Z,100324.53
2018-03-30T16:40:55.119Z,100324.85
2018-03-30T16:43:21.598Z,100334.12
2018-03-30T16:45:48.084Z,100333.42
2018-03-30T16:48:14.767Z,100338.22
2018-03-30T16:50:41.313Z,100330.13
2018-03-30T16:53:08.590Z,100334.53
2018-03-30T16:55:35.199Z,100330.22
2018-03-30T16:58:01.786Z,100336.92
2018-03-30T17:00:28.278Z,100338.09
2018-03-30T17:02:54.952Z,100333.50
2018-03-30T17:05:21.439Z,100337.73
2018-03-30T17:07:48.038Z,100328.73
2018-03-30T17:10:14.555Z,100344.02
2018-03-30T17:12:41.037Z,100341.50
2018-03-30T17:15:07.531Z,100343.13
2018-03-30T17:17:34.088Z,100346.30
2018-03-30T17:20:00.565Z,100338.81
2018-03-30T17:22:27.119Z,100340.20
2018-03-30T17:24:54.433Z,100344.79
2018-03-30T17:27:21.011Z,100346.23
2018-03-30T17:29:47.492Z,100349.50
2018-03-30T17:32:14.952Z,100341.56
2018-03-30T17:34:41.481Z,100347.55
2018-03-30T17:37:07.961Z,100343.53
2018-03-30T17:39:34.486Z,100347.06
2018-03-30T17:42:00.976Z,100350.29
2018-03-30T17:44:27.500Z,100337.94
2018-03-30T17:46:55.096Z,100342.29
2018-03-30T17:49:21.603Z,100341.33
2018-03-30T17:51:48.855Z,100346.70
2018-03-30T17:54:15.387Z,100345.41
2018-03-30T17:56:42.609Z,100344.50
2018-03-30T17:59:09.127Z,100339.22
2018-03-30T18:01:35.655Z,100341.55
2018-03-30T18:04:02.174Z,100345.72
2018-03-30T18:06:29.408Z,100343.20
2018-03-30T18:08:55.986Z,100352.09
2018-03-30T18:11:22.523Z,100351.82
2018-03-30T18:13:49.068Z,100349.95
2018-03-30T18:16:15.697Z,100347.96
2018-03-30T18:18:42.191Z,100351.44
2018-03-30T18:21:09.461Z,100361.86
2018-03-30T18:23:36.190Z,100355.50
2018-03-30T18:26:03.414Z,100357.02
2018-03-30T18:28:30.011Z,100354.39
2018-03-30T18:30:57.933Z,100354.88
2018-03-30T18:33:25.167Z,100360.32
2018-03-30T18:35:52.036Z,100352.20
2018-03-30T18:38:18.908Z,100346.16
2018-03-30T18:40:45.434Z,100351.02
2018-03-30T18:43:11.914Z,100359.09
2018-03-30T18:45:38.464Z,100347.69
2018-03-30T18:48:05.647Z,100356.69
2018-03-30T18:50:32.797Z,100357.92
2018-03-30T18:53:00.058Z,100359.25
2018-03-30T18:55:27.555Z,100360.20
2018-03-30T18:57:54.051Z,100366.97
2018-03-30T19:00:21.465Z,100366.00
2018-03-30T19:02:47.954Z,100363.24
2018-03-30T19:05:14.479Z,100359.09
2018-03-30T19:07:41.834Z,100359.92
2018-03-30T19:10:09.113Z,100360.45
2018-03-30T19:12:35.601Z,100364.96
2018-03-30T19:15:02.233Z,100356.01
2018-03-30T19:17:28.798Z,100356.84
2018-03-30T19:19:56.079Z,100355.76
2018-03-30T19:22:22.795Z,100365.36
2018-03-30T19:24:50.023Z,100355.56
2018-03-30T19:27:16.593Z,100355.02
2018-03-30T19:29:43.992Z,100353.53
2018-03-30T19:32:10.486Z,100353.72
2018-03-30T19:34:37.250Z,100356.63
2018-03-30T19:37:04.033Z,100353.42
2018-03-30T19:39:30.578Z,100358.00
2018-03-30T19:41:57.070Z,100358.19
2018-03-30T19:44:23.751Z,100353.39
2018-03-30T19:46:51.200Z,100350.59
2018-03-30T19:49:17.755Z,100360.83
2018-03-30T19:51:44.383Z,100357.03
2018-03-30T19:54:10.900Z,100351.41
2018-03-30T19:56:37.373Z,100362.13
2018-03-30T19:59:04.003Z,100355.78
2018-03-30T20:01:30.500Z,100360.47
2018-03-30T20:03:56.996Z,100360.42
2018-03-30T20:06:24.456Z,100352.97
2018-03-30T20:08:52.382Z,100347.90
2018-03-30T20:11:18.862Z,100343.47
2018-03-30T20:13:46.244Z,100341.22
2018-03-30T20:16:12.740Z,100342.98
2018-03-30T20:18:39.218Z,100342.95
2018-03-30T20:21:05.832Z,100337.17
2018-03-30T20:23:33.173Z,100332.09
2018-03-30T20:25:59.668Z,100328.93
2018-03-30T20:28:26.207Z,100324.63
2018-03-30T20:30:52.690Z,100321.00
2018-03-30T20:33:19.920Z,100325.84
2018-03-30T20:35:46.625Z,100314.48
2018-03-30T20:38:13.109Z,100311.52
2018-03-30T20:40:39.598Z,100308.00
2018-03-30T20:43:06.299Z,100305.88
2018-03-30T20:45:33.543Z,100297.20
2018-03-30T20:48:00.822Z,100296.81
2018-03-30T20:50:27.482Z,100306.96
2018-03-30T20:52:54.056Z,100299.13
2018-03-30T20:55:20.583Z,100299.27
2018-03-30T20:57:47.530Z,100285.60
2018-03-30T21:00:14.066Z,100290.95
2018-03-30T21:02:41.425Z,100289.49
2018-03-30T21:05:08.106Z,100280.54
2018-03-30T21:07:35.565Z,100284.45
2018-03-30T21:10:02.174Z,100285.31
2018-03-30T21:12:28.831Z,100279.20
2018-03-30T21:14:56.067Z,100280.41
2018-03-30T21:17:22.640Z,100278.84
2018-03-30T21:19:49.312Z,100274.22
2018-03-30T21:22:15.841Z,100269.25
2018-03-30T21:24:42.855Z,100264.63
2018-03-30T21:27:09.552Z,100263.22
2018-03-30T21:29:36.055Z,100263.47
2018-03-30T21:32:02.592Z,100257.09
2018-03-30T21:34:29.161Z,100259.81
2018-03-30T21:36:56.447Z,100256.14
2018-03-30T21:39:22.931Z,100254.05
2018-03-30T21:41:49.589Z,100251.57
2018-03-30T21:44:16.116Z,100247.91
2018-03-30T21:46:42.658Z,100243.89
2018-03-30T21:49:09.325Z,100251.47
2018-03-30T21:51:35.834Z,100247.70
2018-03-30T21:54:02.317Z,100248.20
2018-03-30T21:56:28.838Z,100247.20
2018-03-30T21:58:55.463Z,100242.86
2018-03-30T22:01:22.025Z,100244.66
2018-03-30T22:03:48.743Z,100251.60
2018-03-30T22:06:15.240Z,100253.14
2018-03-30T22:08:41.742Z,100256.98
2018-03-30T22:11:09.309Z,100253.08
2018-03-30T22:13:36.577Z,100252.12
2018-03-30T22:16:03.079Z,100251.56
2018-03-30T22:18:30.596Z,100240.05
2018-03-30T22:20:57.166Z,100243.44
2018-03-30T22:23:23.651Z,100240.97
2018-03-30T22:25:50.212Z,100246.89
2018-03-30T22:28:16.690Z,100242.77
2018-03-30T22:30:43.291Z,100236.10
2018-03-30T22:33:09.948Z,100231.98
2018-03-30T22:35:36.471Z,100225.06
2018-03-30T22:38:03.050Z,100220.41
2018-03-30T22:40:29.892Z,100226.97
2018-03-30T22:42:57.116Z,100219.34
2018-03-30T22:45:23.641Z,100227.72
2018-03-30T22:47:50.230Z,100227.98
2018-03-30T22:50:17.519Z,100230.58
2018-03-30T22:52:43.997Z,100222.11
2018-03-30T22:55:10.622Z,100217.95
2018-03-30T22:57:37.207Z,100218.91
2018-03-30T23:00:03.703Z,100219.25
2018-03-30T23:02:30.335Z,100216.09
2018-03-30T23:04:56.827Z,100217.84
2018-03-30T23:07:23.311Z,100216.19
2018-03-30T23:09:49.893Z,100205.97
2018-03-30T23:12:17.239Z,100206.90
2018-03-30T23:14:43.993Z,100215.87
2018-03-30T23:17:11.005Z,100207.25
2018-03-30T23:19:37.668Z,100205.05
2018-03-30T23:22:04.222Z,100196.86
2018-03-30T23:24:30.845Z,100199.84
2018-03-30T23:26:58.066Z,100192.71
2018-03-30T23:29:24.568Z,100190.31
2018-03-30T23:31:51.115Z,100184.80
2018-03-30T23:34:17.610Z,100178.19
2018-03-30T23:36:44.869Z,100188.55
2018-03-30T23:39:11.763Z,100181.62
2018-03-30T23:41:38.294Z,100181.38
2018-03-30T23:44:04.788Z,100176.81
2018-03-30T23:46:32.187Z,100186.80
2018-03-30T23:48:58.676Z,100173.61
2018-03-30T23:51:25.909Z,100181.62
2018-03-30T23:53:52.538Z,100171.11
2018-03-30T23:56:19.024Z,100170.29
2018-03-30T23:58:45.640Z,100174.12
